EFVA

Vaasa Airport

Vaasa, Finland
METAR EFVA 211520Z AUTO 28006KT 9999 -RA BKN035/// OVC044/// 06/02 Q1002
Observed Flight Rules
Apr-21 @ 15:20 UTC (19 minutes ago) Visual Flight Rules
Wind Visibility Clouds Conditions
280° at 6 knots 10,000+ meters
  • Broken at 3,500' AGL
  • Overcast at 4,400' AGL
  • Light Rain
Temperatures Readings
Current 6°C / 43°F
Dewpoint 2°C / 36°F
Humidity 76%
Altimeter 29.59" Hg
Pressure 1002 hPa
Elevation 4
METAR EFVA 211520Z AUTO 28006KT 9999 -RA BKN035/// OVC044/// 06/02 Q1002
Observed Flight Rules
Apr-21 @ 15:20 UTC
(19 minutes ago)
VFR
Wind Visibility
280° at 6 knots 10,000+ meters
Clouds
  • Broken at 3,500' AGL
  • Overcast at 4,400' AGL
Conditions
  • Light Rain
Temperature Dewpoint
6°C / 43°F 2°C / 36°F
Humidity Altimeter Pressure
76% 29.59" Hg 1002 hPa